Time;durP1;ratioP1;P1;durP2;ratioP2;P2;SDS_P1;SDS_P2;PMS_P1;PMS_P2;Temp;Humidity;BMP_temperature;BMP_pressure;BME280_temperature;BME280_humidity;BME280_pressure;Samples;Min_cycle;Max_cycle;Signal;HPM_P1;HPM_P2
2021/07/01 00:00:19;;;;;;;21.52;10.50;;;;;;;;;;4943735;28;20102;-83
2021/07/01 00:02:45;;;;;;;19.92;9.95;;;;;;;;;;4946560;28;20055;-82
2021/07/01 00:05:13;;;;;;;21.27;10.25;;;;;;;;;;4946746;28;20400;-86
2021/07/01 00:07:40;;;;;;;26.10;11.15;;;;;;;;;;4941946;28;20106;-82
2021/07/01 00:10:11;;;;;;;20.55;10.23;;;;;;;;;;4929732;28;20059;-81
2021/07/01 00:12:38;;;;;;;22.63;10.23;;;;;;;;;;4929160;28;20062;-81
2021/07/01 00:15:05;;;;;;;20.67;10.48;;;;;;;;;;4927332;29;20122;-82
2021/07/01 00:17:32;;;;;;;24.58;10.70;;;;;;;;;;4945144;28;20142;-82
2021/07/01 00:19:58;;;;;;;17.88;10.18;;;;;;;;;;4930395;29;20047;-82
2021/07/01 00:22:25;;;;;;;21.42;10.00;;;;;;;;;;4928088;29;20440;-82
2021/07/01 00:24:51;;;;;;;20.75;9.52;;;;;;;;;;4945858;28;20487;-82
2021/07/01 00:27:17;;;;;;;21.52;10.02;;;;;;;;;;4945883;28;20051;-82
2021/07/01 00:29:43;;;;;;;20.83;10.07;;;;;;;;;;4943964;28;20043;-82
2021/07/01 00:32:09;;;;;;;19.10;9.70;;;;;;;;;;4946221;28;20051;-83
2021/07/01 00:34:36;;;;;;;25.73;10.88;;;;;;;;;;4946541;28;20051;-81
2021/07/01 00:37:02;;;;;;;23.90;11.13;;;;;;;;;;4930961;28;20050;-81
2021/07/01 00:39:28;;;;;;;22.15;10.93;;;;;;;;;;4936314;28;20043;-82
2021/07/01 00:41:54;;;;;;;22.38;10.85;;;;;;;;;;4947387;28;20055;-81
2021/07/01 00:44:20;;;;;;;23.55;12.50;;;;;;;;;;4944628;28;20466;-82
2021/07/01 00:46:47;;;;;;;24.98;11.43;;;;;;;;;;4945017;28;20047;-81
2021/07/01 00:49:13;;;;;;;22.70;11.52;;;;;;;;;;4947150;28;20074;-86
2021/07/01 00:51:40;;;;;;;26.25;12.02;;;;;;;;;;4920012;29;20142;-82
2021/07/01 00:54:07;;;;;;;18.65;10.90;;;;;;;;;;4934038;28;20048;-81
2021/07/01 01:01:45;;;;;;;26.45;12.43;;;;;;;;;;5008509;23;20552;-81
2021/07/01 01:04:11;;;;;;;25.85;12.20;;;;;;;;;;4950406;28;20046;-83
2021/07/01 01:06:38;;;;;;;28.90;12.88;;;;;;;;;;4962545;28;20097;-81
2021/07/01 01:09:05;;;;;;;25.23;12.20;;;;;;;;;;4955000;28;20058;-81
2021/07/01 01:11:32;;;;;;;23.58;12.63;;;;;;;;;;4959120;28;20455;-81
2021/07/01 01:13:58;;;;;;;29.52;12.52;;;;;;;;;;4932201;28;20062;-82
2021/07/01 01:16:24;;;;;;;27.77;13.07;;;;;;;;;;4937835;28;20062;-81
2021/07/01 01:18:52;;;;;;;29.27;12.60;;;;;;;;;;4958810;28;20047;-86
2021/07/01 01:21:18;;;;;;;25.90;12.13;;;;;;;;;;4932740;28;20122;-82
2021/07/01 01:23:45;;;;;;;27.70;12.07;;;;;;;;;;4956527;28;20121;-82
2021/07/01 01:26:11;;;;;;;23.08;11.88;;;;;;;;;;4957749;28;20051;-83
2021/07/01 01:28:37;;;;;;;26.83;13.00;;;;;;;;;;4965947;28;20067;-81
2021/07/01 01:31:04;;;;;;;24.95;12.70;;;;;;;;;;4954313;28;20066;-82
2021/07/01 01:33:32;;;;;;;29.25;13.45;;;;;;;;;;4956922;28;20079;-83
2021/07/01 01:35:58;;;;;;;29.42;12.50;;;;;;;;;;4958700;28;20083;-82
2021/07/01 01:38:24;;;;;;;28.73;13.68;;;;;;;;;;4940071;28;20051;-82
2021/07/01 01:40:51;;;;;;;24.63;12.93;;;;;;;;;;4952951;28;20059;-82
2021/07/01 01:43:18;;;;;;;30.02;13.07;;;;;;;;;;4963984;28;20269;-82
2021/07/01 01:45:45;;;;;;;29.10;13.48;;;;;;;;;;4957717;28;20509;-82
2021/07/01 01:48:12;;;;;;;27.00;11.30;;;;;;;;;;4956831;28;20446;-84
2021/07/01 01:50:38;;;;;;;24.23;12.18;;;;;;;;;;4954091;28;20054;-82
2021/07/01 01:53:05;;;;;;;31.05;14.27;;;;;;;;;;4957317;28;20474;-83
2021/07/01 01:55:33;;;;;;;28.60;14.05;;;;;;;;;;4956203;28;20186;-82
2021/07/01 01:57:59;;;;;;;27.27;14.10;;;;;;;;;;4951538;28;20055;-83
2021/07/01 02:00:26;;;;;;;28.10;13.30;;;;;;;;;;4953123;28;20126;-82
2021/07/01 02:02:52;;;;;;;27.13;13.07;;;;;;;;;;4949248;28;20395;-82
2021/07/01 02:05:21;;;;;;;26.95;13.20;;;;;;;;;;4944978;28;20097;-81
2021/07/01 02:07:48;;;;;;;28.17;13.63;;;;;;;;;;4958808;28;20546;-81
2021/07/01 02:10:19;;;;;;;28.30;14.27;;;;;;;;;;4941502;28;20534;-83
2021/07/01 02:12:46;;;;;;;29.13;14.00;;;;;;;;;;4942246;28;20410;-82
2021/07/01 02:15:13;;;;;;;27.58;13.75;;;;;;;;;;4960524;28;20050;-82
2021/07/01 02:17:40;;;;;;;22.27;12.38;;;;;;;;;;4951649;28;20050;-82
2021/07/01 02:20:11;;;;;;;28.17;13.55;;;;;;;;;;4944162;28;20058;-82
2021/07/01 02:22:38;;;;;;;30.17;13.88;;;;;;;;;;4943922;28;20137;-81
2021/07/01 02:25:05;;;;;;;28.85;13.68;;;;;;;;;;4953416;28;20050;-81
2021/07/01 02:27:32;;;;;;;29.15;13.85;;;;;;;;;;4952935;28;20098;-82
2021/07/01 02:30:00;;;;;;;28.50;13.75;;;;;;;;;;4959101;28;20047;-81
2021/07/01 02:32:26;;;;;;;27.63;13.60;;;;;;;;;;4954256;28;20058;-81
2021/07/01 02:34:52;;;;;;;27.23;14.05;;;;;;;;;;4944811;28;20419;-82
2021/07/01 02:37:19;;;;;;;27.98;14.45;;;;;;;;;;4932078;28;20065;-81
2021/07/01 02:39:46;;;;;;;30.27;14.02;;;;;;;;;;4954020;28;20057;-82
2021/07/01 02:42:13;;;;;;;26.48;13.85;;;;;;;;;;4959364;28;20062;-83
2021/07/01 02:44:39;;;;;;;27.92;13.38;;;;;;;;;;4962146;28;20053;-83
2021/07/01 02:47:05;;;;;;;32.22;14.85;;;;;;;;;;4954190;28;20078;-83
2021/07/01 02:49:32;;;;;;;28.08;14.10;;;;;;;;;;4929290;28;20047;-82
2021/07/01 02:51:58;;;;;;;25.17;14.25;;;;;;;;;;4962433;28;20077;-83
2021/07/01 02:54:24;;;;;;;29.85;14.50;;;;;;;;;;4953949;28;20082;-82
2021/07/01 02:56:51;;;;;;;31.48;14.85;;;;;;;;;;4956051;28;20051;-82
2021/07/01 02:59:19;;;;;;;30.65;14.48;;;;;;;;;;4951296;28;20494;-83
2021/07/01 03:01:45;;;;;;;26.83;13.05;;;;;;;;;;4952070;28;20462;-83
2021/07/01 03:04:12;;;;;;;24.80;13.57;;;;;;;;;;4956164;28;20483;-83
2021/07/01 03:06:39;;;;;;;30.13;14.10;;;;;;;;;;4936871;28;20131;-82
2021/07/01 03:09:05;;;;;;;28.75;13.77;;;;;;;;;;4949493;28;20138;-83
2021/07/01 03:11:35;;;;;;;27.60;14.00;;;;;;;;;;4955690;28;20039;-83
2021/07/01 03:14:01;;;;;;;35.58;14.80;;;;;;;;;;4947774;28;20260;-83
2021/07/01 03:16:27;;;;;;;31.58;14.77;;;;;;;;;;4946871;28;20497;-83
2021/07/01 03:18:54;;;;;;;25.05;13.57;;;;;;;;;;4941031;28;20055;-83
2021/07/01 03:21:21;;;;;;;26.60;13.57;;;;;;;;;;4962344;28;20051;-83
2021/07/01 03:23:48;;;;;;;26.67;13.05;;;;;;;;;;4954872;28;20074;-82
2021/07/01 03:26:15;;;;;;;30.05;13.82;;;;;;;;;;4951351;28;20055;-82
2021/07/01 03:28:41;;;;;;;27.40;13.15;;;;;;;;;;4957201;28;20570;-82
2021/07/01 03:31:08;;;;;;;28.90;12.80;;;;;;;;;;4952529;28;20075;-83
2021/07/01 03:33:34;;;;;;;47.65;19.83;;;;;;;;;;4925825;28;20549;-85
2021/07/01 03:36:01;;;;;;;32.30;14.43;;;;;;;;;;4954385;28;20063;-83
2021/07/01 03:38:27;;;;;;;32.38;15.48;;;;;;;;;;4943859;28;20413;-83
2021/07/01 03:40:54;;;;;;;34.17;16.30;;;;;;;;;;4956791;28;20051;-83
2021/07/01 03:43:21;;;;;;;30.25;14.70;;;;;;;;;;4944769;28;20047;-83
2021/07/01 03:45:47;;;;;;;29.23;14.73;;;;;;;;;;4937965;28;20134;-83
2021/07/01 03:48:13;;;;;;;26.33;11.85;;;;;;;;;;4925130;28;20051;-84
2021/07/01 03:50:40;;;;;;;28.85;14.40;;;;;;;;;;4929976;28;20507;-83
2021/07/01 03:53:06;;;;;;;32.63;15.25;;;;;;;;;;4931607;28;20097;-84
2021/07/01 03:55:32;;;;;;;31.33;15.25;;;;;;;;;;4937782;28;20075;-83
2021/07/01 03:57:59;;;;;;;27.52;14.68;;;;;;;;;;4952320;28;20122;-83
2021/07/01 04:00:25;;;;;;;27.98;14.13;;;;;;;;;;4960985;28;20547;-83
2021/07/01 04:02:51;;;;;;;26.50;14.25;;;;;;;;;;4957177;28;20050;-83
2021/07/01 04:05:17;;;;;;;29.33;15.18;;;;;;;;;;4963681;28;20055;-83
2021/07/01 04:07:44;;;;;;;31.55;13.52;;;;;;;;;;4959919;28;20058;-83
2021/07/01 04:10:12;;;;;;;29.75;14.52;;;;;;;;;;4957978;28;20047;-85
2021/07/01 04:12:39;;;;;;;31.25;15.35;;;;;;;;;;4962537;28;20056;-83
2021/07/01 04:15:06;;;;;;;31.23;13.63;;;;;;;;;;4950007;28;20075;-83
2021/07/01 04:17:33;;;;;;;26.38;12.98;;;;;;;;;;4950362;28;20097;-83
2021/07/01 04:19:59;;;;;;;32.38;14.43;;;;;;;;;;4956185;28;20047;-84
2021/07/01 04:22:26;;;;;;;29.02;14.57;;;;;;;;;;4944430;28;20409;-82
2021/07/01 04:24:53;;;;;;;32.28;15.20;;;;;;;;;;4952957;28;20054;-84
2021/07/01 04:27:20;;;;;;;33.17;15.23;;;;;;;;;;4955628;28;20487;-85
2021/07/01 04:29:46;;;;;;;30.58;15.32;;;;;;;;;;4941313;28;20065;-84
2021/07/01 04:32:12;;;;;;;28.30;14.73;;;;;;;;;;4934223;28;20046;-86
2021/07/01 04:34:38;;;;;;;29.48;14.02;;;;;;;;;;4935584;28;20406;-86
2021/07/01 04:37:05;;;;;;;27.85;15.15;;;;;;;;;;4960604;28;20101;-84
2021/07/01 04:39:31;;;;;;;30.50;15.48;;;;;;;;;;4948952;28;20134;-84
2021/07/01 04:41:58;;;;;;;29.30;14.90;;;;;;;;;;4949139;28;20078;-84
2021/07/01 04:44:24;;;;;;;30.45;16.05;;;;;;;;;;4945479;28;20058;-83
2021/07/01 04:46:50;;;;;;;32.55;14.95;;;;;;;;;;4947539;28;20055;-83
2021/07/01 04:49:16;;;;;;;30.08;15.45;;;;;;;;;;4945221;28;20065;-85
2021/07/01 04:51:43;;;;;;;32.67;16.10;;;;;;;;;;4953882;28;20421;-84
2021/07/01 04:54:09;;;;;;;33.20;16.77;;;;;;;;;;4955569;28;20134;-83
2021/07/01 04:56:45;;;;;;;32.25;15.77;;;;;;;;;;4948277;28;20058;-85
2021/07/01 04:59:11;;;;;;;30.70;16.05;;;;;;;;;;4950594;28;20055;-84
2021/07/01 05:01:38;;;;;;;31.75;15.43;;;;;;;;;;4952221;28;20078;-83
2021/07/01 05:04:06;;;;;;;39.13;17.02;;;;;;;;;;4957723;28;20214;-84
2021/07/01 05:06:32;;;;;;;30.65;14.55;;;;;;;;;;4961502;28;20130;-83
2021/07/01 05:08:59;;;;;;;29.75;15.35;;;;;;;;;;4956983;28;20142;-83
2021/07/01 05:11:25;;;;;;;29.75;15.52;;;;;;;;;;4957647;28;20055;-85
2021/07/01 05:13:51;;;;;;;31.40;15.43;;;;;;;;;;4949348;28;20446;-84
2021/07/01 05:16:17;;;;;;;29.48;16.30;;;;;;;;;;4943552;28;20050;-85
2021/07/01 05:18:43;;;;;;;30.27;16.65;;;;;;;;;;4958644;28;20050;-85
2021/07/01 05:21:10;;;;;;;34.08;17.83;;;;;;;;;;4948660;28;20449;-90
2021/07/01 05:23:36;;;;;;;33.33;17.55;;;;;;;;;;4954735;28;20047;-85
2021/07/01 05:26:03;;;;;;;28.55;16.67;;;;;;;;;;4947055;28;20051;-83
2021/07/01 05:28:29;;;;;;;31.02;17.13;;;;;;;;;;4943457;28;20055;-86
2021/07/01 05:30:55;;;;;;;32.67;16.48;;;;;;;;;;4956215;28;20119;-83
2021/07/01 05:33:21;;;;;;;30.33;15.95;;;;;;;;;;4946435;28;20087;-84
2021/07/01 05:35:47;;;;;;;31.75;16.52;;;;;;;;;;4951655;28;20082;-84
2021/07/01 05:38:13;;;;;;;31.08;17.45;;;;;;;;;;4957160;28;20047;-84
2021/07/01 05:40:40;;;;;;;29.98;16.40;;;;;;;;;;4939832;28;20487;-84
2021/07/01 05:43:07;;;;;;;32.15;16.30;;;;;;;;;;4953275;28;20065;-83
2021/07/01 05:45:34;;;;;;;28.27;15.65;;;;;;;;;;4947917;28;20051;-83
2021/07/01 05:48:00;;;;;;;31.60;15.45;;;;;;;;;;4947749;28;20054;-82
2021/07/01 05:50:27;;;;;;;29.98;15.45;;;;;;;;;;4946670;28;20537;-87
2021/07/01 05:52:58;;;;;;;30.55;15.95;;;;;;;;;;4950271;28;20059;-84
2021/07/01 05:55:25;;;;;;;31.70;17.25;;;;;;;;;;4946288;28;20055;-84
2021/07/01 05:57:51;;;;;;;29.90;16.48;;;;;;;;;;4929085;28;20055;-86
2021/07/01 06:00:18;;;;;;;32.50;18.13;;;;;;;;;;4957786;28;20061;-84
2021/07/01 06:02:48;;;;;;;31.75;18.08;;;;;;;;;;4960827;28;20468;-83
2021/07/01 06:05:14;;;;;;;31.75;17.65;;;;;;;;;;4976800;28;20047;-85
2021/07/01 06:07:43;;;;;;;28.85;16.52;;;;;;;;;;4974234;28;20043;-83
2021/07/01 06:10:10;;;;;;;31.73;16.77;;;;;;;;;;4972389;28;20066;-83
2021/07/01 06:12:36;;;;;;;31.10;17.55;;;;;;;;;;4958956;28;20509;-84
2021/07/01 06:15:03;;;;;;;33.22;18.27;;;;;;;;;;4974570;28;20502;-83
2021/07/01 06:17:34;;;;;;;33.60;16.60;;;;;;;;;;4948519;28;20058;-83
2021/07/01 06:20:02;;;;;;;28.58;17.52;;;;;;;;;;4960404;28;20122;-83
2021/07/01 06:22:29;;;;;;;28.23;16.55;;;;;;;;;;4954412;28;20120;-83
2021/07/01 06:24:57;;;;;;;26.30;15.82;;;;;;;;;;4964295;28;20046;-83
2021/07/01 06:27:39;;;;;;;30.42;15.20;;;;;;;;;;4955730;28;20051;-83
2021/07/01 06:30:15;;;;;;;28.17;15.60;;;;;;;;;;4959094;28;20070;-83
2021/07/01 06:32:45;;;;;;;31.48;16.50;;;;;;;;;;4966511;28;20062;-83
2021/07/01 06:35:15;;;;;;;29.52;16.60;;;;;;;;;;4970860;28;20590;-86
2021/07/01 06:37:42;;;;;;;27.75;16.77;;;;;;;;;;4962578;28;20055;-85
2021/07/01 06:40:11;;;;;;;27.02;15.90;;;;;;;;;;4950183;28;20059;-83
2021/07/01 06:42:45;;;;;;;28.75;16.40;;;;;;;;;;4946073;28;20505;-83
2021/07/01 06:45:12;;;;;;;31.55;15.65;;;;;;;;;;4963047;28;20065;-87
2021/07/01 06:47:39;;;;;;;31.67;17.38;;;;;;;;;;4955218;28;20066;-83
2021/07/01 06:50:06;;;;;;;31.00;17.20;;;;;;;;;;4969789;28;20055;-83
2021/07/01 06:52:32;;;;;;;28.27;16.63;;;;;;;;;;4944809;28;20920;-83
2021/07/01 06:54:59;;;;;;;31.00;17.00;;;;;;;;;;4958257;28;20465;-84
2021/07/01 06:57:25;;;;;;;26.98;16.05;;;;;;;;;;4967593;28;20131;-84
2021/07/01 06:59:52;;;;;;;28.38;16.25;;;;;;;;;;4962873;28;20067;-83
2021/07/01 07:02:18;;;;;;;29.30;16.42;;;;;;;;;;4964487;28;20059;-84
2021/07/01 07:04:45;;;;;;;28.50;17.17;;;;;;;;;;4948908;28;20055;-83
2021/07/01 07:07:12;;;;;;;30.45;17.27;;;;;;;;;;4968868;28;20094;-85
2021/07/01 07:09:39;;;;;;;29.75;16.45;;;;;;;;;;4962422;28;20054;-83
2021/07/01 07:12:05;;;;;;;29.50;17.33;;;;;;;;;;4971699;28;20054;-83
2021/07/01 07:14:31;;;;;;;27.15;16.90;;;;;;;;;;4959229;28;20138;-83
2021/07/01 07:16:58;;;;;;;23.50;14.45;;;;;;;;;;4955773;28;20048;-83
2021/07/01 07:19:27;;;;;;;29.17;17.58;;;;;;;;;;4966347;28;20046;-83
2021/07/01 07:21:54;;;;;;;33.80;19.00;;;;;;;;;;4964680;28;20130;-83
2021/07/01 07:24:20;;;;;;;30.45;16.65;;;;;;;;;;4967148;28;20138;-83
2021/07/01 07:26:52;;;;;;;29.15;17.35;;;;;;;;;;4952690;28;20482;-83
2021/07/01 07:29:19;;;;;;;29.75;17.73;;;;;;;;;;4963844;28;20053;-84
2021/07/01 07:31:45;;;;;;;29.52;17.65;;;;;;;;;;4980912;28;20047;-84
2021/07/01 07:34:12;;;;;;;30.65;16.90;;;;;;;;;;4959507;28;20493;-84
2021/07/01 07:36:38;;;;;;;29.50;17.17;;;;;;;;;;4975903;28;20063;-84
2021/07/01 07:39:05;;;;;;;26.88;15.60;;;;;;;;;;4976366;28;20063;-82
2021/07/01 07:41:31;;;;;;;26.02;15.07;;;;;;;;;;4950183;28;20051;-82
2021/07/01 07:43:58;;;;;;;23.90;14.68;;;;;;;;;;4950206;28;20055;-83
2021/07/01 07:46:25;;;;;;;27.73;15.70;;;;;;;;;;4977390;28;20077;-83
2021/07/01 07:48:52;;;;;;;30.48;17.60;;;;;;;;;;4967484;28;20054;-83
2021/07/01 07:51:21;;;;;;;28.17;15.98;;;;;;;;;;4948248;28;20043;-84
2021/07/01 07:53:51;;;;;;;27.48;16.52;;;;;;;;;;4966800;28;20109;-83
2021/07/01 07:56:22;;;;;;;24.63;15.88;;;;;;;;;;4969364;28;20078;-88
2021/07/01 07:58:49;;;;;;;23.65;15.30;;;;;;;;;;4948988;28;20050;-83
2021/07/01 08:01:16;;;;;;;26.13;15.93;;;;;;;;;;4981785;28;20185;-87
2021/07/01 08:03:43;;;;;;;27.73;16.83;;;;;;;;;;4958458;28;20058;-83
2021/07/01 08:06:10;;;;;;;29.85;17.02;;;;;;;;;;4957593;28;20055;-82
2021/07/01 08:08:37;;;;;;;28.05;16.85;;;;;;;;;;4963865;28;20069;-82
2021/07/01 08:11:05;;;;;;;28.33;16.35;;;;;;;;;;4958993;28;20054;-82
2021/07/01 08:13:32;;;;;;;24.75;16.15;;;;;;;;;;4954392;28;20051;-83
2021/07/01 08:15:58;;;;;;;27.52;17.42;;;;;;;;;;4965022;28;20502;-82
2021/07/01 08:18:41;;;;;;;27.63;15.32;;;;;;;;;;4956271;28;20443;-83
2021/07/01 08:21:08;;;;;;;25.33;15.52;;;;;;;;;;4939399;28;20051;-82
2021/07/01 08:23:35;;;;;;;28.85;17.67;;;;;;;;;;4948550;28;20130;-82
2021/07/01 08:26:01;;;;;;;26.33;16.48;;;;;;;;;;4956047;28;20055;-82
2021/07/01 08:28:29;;;;;;;28.65;16.58;;;;;;;;;;4939069;28;20498;-83
2021/07/01 08:31:00;;;;;;;24.90;16.17;;;;;;;;;;4962773;28;20079;-82
2021/07/01 08:33:32;;;;;;;28.83;17.17;;;;;;;;;;4961016;28;20090;-83
2021/07/01 08:35:59;;;;;;;27.13;17.15;;;;;;;;;;4938038;28;20130;-82
2021/07/01 08:38:25;;;;;;;27.08;17.25;;;;;;;;;;4938451;28;20051;-83
2021/07/01 08:40:57;;;;;;;23.40;15.48;;;;;;;;;;4963113;28;20517;-83
2021/07/01 08:43:25;;;;;;;24.15;16.45;;;;;;;;;;4954784;28;20043;-83
2021/07/01 08:45:51;;;;;;;29.75;17.65;;;;;;;;;;4954014;28;20558;-82
2021/07/01 08:48:22;;;;;;;26.75;15.35;;;;;;;;;;4959671;28;20051;-88
2021/07/01 08:50:58;;;;;;;24.48;17.33;;;;;;;;;;4954081;28;20086;-82
2021/07/01 08:53:30;;;;;;;29.75;18.42;;;;;;;;;;4956518;28;20047;-82
2021/07/01 08:55:58;;;;;;;23.90;16.52;;;;;;;;;;4950257;28;20043;-82
2021/07/01 08:58:24;;;;;;;26.35;16.45;;;;;;;;;;4958548;28;20053;-82
2021/07/01 09:00:51;;;;;;;30.00;18.33;;;;;;;;;;4955385;28;20050;-82
2021/07/01 09:03:17;;;;;;;26.63;17.42;;;;;;;;;;4971985;28;20055;-86
2021/07/01 09:05:46;;;;;;;24.75;16.05;;;;;;;;;;4949530;28;20055;-84
2021/07/01 09:08:13;;;;;;;21.50;15.95;;;;;;;;;;4948103;28;20062;-83
2021/07/01 09:10:48;;;;;;;23.73;17.10;;;;;;;;;;4962105;28;20051;-83
2021/07/01 09:13:14;;;;;;;25.13;16.70;;;;;;;;;;4950807;28;20159;-83
2021/07/01 09:15:42;;;;;;;26.20;16.58;;;;;;;;;;4951091;28;20059;-83
2021/07/01 09:18:10;;;;;;;24.45;17.08;;;;;;;;;;4967496;28;20051;-82
2021/07/01 09:20:38;;;;;;;30.20;17.02;;;;;;;;;;4952458;28;20048;-82
2021/07/01 09:23:05;;;;;;;27.02;16.95;;;;;;;;;;4951887;28;20050;-82
2021/07/01 09:25:32;;;;;;;27.42;17.88;;;;;;;;;;4948516;28;20062;-82
2021/07/01 09:27:58;;;;;;;26.55;17.77;;;;;;;;;;4962916;28;20050;-83
2021/07/01 09:30:26;;;;;;;24.73;18.02;;;;;;;;;;4955116;28;20474;-82
2021/07/01 09:33:01;;;;;;;26.33;18.00;;;;;;;;;;4973951;28;20429;-82
2021/07/01 09:35:28;;;;;;;29.60;18.42;;;;;;;;;;4947748;28;20561;-82
2021/07/01 09:37:55;;;;;;;27.60;18.33;;;;;;;;;;4954547;28;20105;-82
2021/07/01 09:40:22;;;;;;;28.27;18.02;;;;;;;;;;4971707;28;20056;-84
2021/07/01 09:42:53;;;;;;;26.75;17.92;;;;;;;;;;4979451;28;20047;-83
2021/07/01 09:45:22;;;;;;;28.83;18.83;;;;;;;;;;4950719;28;20047;-87
2021/07/01 09:47:51;;;;;;;29.42;18.67;;;;;;;;;;4961944;28;20054;-84
2021/07/01 09:50:18;;;;;;;27.92;18.33;;;;;;;;;;4965001;28;20055;-87
2021/07/01 09:52:45;;;;;;;27.60;18.02;;;;;;;;;;4970645;28;20051;-82
2021/07/01 09:55:13;;;;;;;27.15;17.70;;;;;;;;;;4964808;28;20137;-82
2021/07/01 09:57:45;;;;;;;26.45;17.65;;;;;;;;;;4964443;28;20047;-82
2021/07/01 10:00:13;;;;;;;26.77;18.08;;;;;;;;;;4974510;28;20081;-84
2021/07/01 10:02:39;;;;;;;29.05;18.13;;;;;;;;;;4967693;28;20481;-83
2021/07/01 10:05:07;;;;;;;28.98;17.90;;;;;;;;;;4948618;28;20970;-83
2021/07/01 10:07:34;;;;;;;27.40;19.02;;;;;;;;;;4956728;28;20051;-83
2021/07/01 10:10:11;;;;;;;29.52;18.55;;;;;;;;;;4954280;28;20066;-83
2021/07/01 10:12:47;;;;;;;27.67;18.50;;;;;;;;;;4957475;28;20101;-83
2021/07/01 10:15:24;;;;;;;28.40;16.83;;;;;;;;;;4940819;28;20051;-83
2021/07/01 10:18:09;;;;;;;28.40;17.20;;;;;;;;;;4939844;28;20066;-82
2021/07/01 10:20:35;;;;;;;25.20;17.17;;;;;;;;;;4937781;28;20066;-83
2021/07/01 10:23:02;;;;;;;28.52;17.90;;;;;;;;;;4964229;28;20061;-83
2021/07/01 10:25:29;;;;;;;27.35;16.30;;;;;;;;;;4938576;28;20057;-83
2021/07/01 10:27:57;;;;;;;26.60;17.98;;;;;;;;;;4955625;28;20074;-83
2021/07/01 10:30:24;;;;;;;25.95;18.60;;;;;;;;;;4962316;28;20054;-83
2021/07/01 10:32:53;;;;;;;31.35;20.27;;;;;;;;;;4947363;28;20055;-84
2021/07/01 10:35:20;;;;;;;26.10;18.27;;;;;;;;;;4949404;28;20078;-87
2021/07/01 10:37:55;;;;;;;36.72;20.00;;;;;;;;;;4959643;28;20511;-83
2021/07/01 10:40:21;;;;;;;28.85;19.85;;;;;;;;;;4956330;28;20491;-84
2021/07/01 10:42:51;;;;;;;24.67;16.38;;;;;;;;;;4952612;28;20494;-84
2021/07/01 10:45:18;;;;;;;25.67;18.55;;;;;;;;;;4945632;28;20047;-88
2021/07/01 10:47:44;;;;;;;31.48;19.10;;;;;;;;;;4959727;28;20051;-83
2021/07/01 10:50:19;;;;;;;28.23;18.77;;;;;;;;;;4936369;28;20082;-85
2021/07/01 10:52:45;;;;;;;28.13;18.27;;;;;;;;;;4956354;28;20073;-83
2021/07/01 10:55:12;;;;;;;27.20;18.20;;;;;;;;;;4949016;28;20062;-84
2021/07/01 10:57:47;;;;;;;28.77;19.05;;;;;;;;;;4933751;28;20075;-83
2021/07/01 11:00:14;;;;;;;28.42;18.35;;;;;;;;;;4955874;28;20047;-84
2021/07/01 11:02:47;;;;;;;28.55;18.92;;;;;;;;;;4960299;28;20043;-85
2021/07/01 11:05:14;;;;;;;29.80;17.77;;;;;;;;;;4952872;28;20053;-81
2021/07/01 11:07:42;;;;;;;30.73;19.60;;;;;;;;;;4954319;28;20577;-84
2021/07/01 11:10:08;;;;;;;31.55;19.48;;;;;;;;;;4959464;28;20079;-83
2021/07/01 11:12:41;;;;;;;30.63;18.77;;;;;;;;;;4927485;28;20129;-83
2021/07/01 11:15:08;;;;;;;29.10;18.48;;;;;;;;;;4943019;28;20060;-84
2021/07/01 11:17:35;;;;;;;25.90;17.33;;;;;;;;;;4952777;28;20059;-84
2021/07/01 11:20:15;;;;;;;26.55;17.75;;;;;;;;;;4953602;28;20047;-84
2021/07/01 11:22:45;;;;;;;26.63;18.17;;;;;;;;;;4923742;28;20646;-85
2021/07/01 11:25:34;;;;;;;27.65;18.33;;;;;;;;;;4961845;28;20047;-83
2021/07/01 11:28:18;;;;;;;28.63;17.05;;;;;;;;;;4947577;28;20445;-83
2021/07/01 11:30:49;;;;;;;29.67;18.92;;;;;;;;;;4939119;28;20087;-85
2021/07/01 11:33:16;;;;;;;30.02;18.50;;;;;;;;;;4952328;28;20480;-85
2021/07/01 11:35:42;;;;;;;31.70;20.35;;;;;;;;;;4961802;28;20166;-83
2021/07/01 11:38:33;;;;;;;28.20;17.30;;;;;;;;;;4953205;28;20109;-83
2021/07/01 11:41:02;;;;;;;24.63;16.42;;;;;;;;;;4936233;28;20130;-83
2021/07/01 11:43:28;;;;;;;29.08;19.08;;;;;;;;;;4944051;28;20091;-83
2021/07/01 11:45:55;;;;;;;30.80;20.60;;;;;;;;;;4958579;28;20051;-83
2021/07/01 11:48:22;;;;;;;29.75;19.30;;;;;;;;;;4952980;28;20082;-88
2021/07/01 11:50:49;;;;;;;28.50;18.92;;;;;;;;;;4954117;28;20055;-83
2021/07/01 11:53:17;;;;;;;30.73;19.65;;;;;;;;;;4962264;28;20614;-83
2021/07/01 11:55:44;;;;;;;31.60;20.60;;;;;;;;;;4955784;28;20138;-83
2021/07/01 11:58:12;;;;;;;30.25;19.88;;;;;;;;;;4961610;28;20071;-86
2021/07/01 12:00:38;;;;;;;30.50;19.67;;;;;;;;;;4948614;28;20372;-83
2021/07/01 12:03:05;;;;;;;32.78;20.10;;;;;;;;;;4953101;28;20062;-83
2021/07/01 12:05:33;;;;;;;29.30;19.80;;;;;;;;;;4963179;28;20055;-84
2021/07/01 12:07:59;;;;;;;30.60;21.20;;;;;;;;;;4951027;28;20052;-83
2021/07/01 12:10:26;;;;;;;33.70;19.83;;;;;;;;;;4950951;28;20054;-84
2021/07/01 12:12:52;;;;;;;29.67;21.40;;;;;;;;;;4960228;28;20082;-83
2021/07/01 12:15:19;;;;;;;29.30;19.85;;;;;;;;;;4953949;28;20048;-83
2021/07/01 12:18:04;;;;;;;29.02;19.75;;;;;;;;;;4935631;28;20061;-84
2021/07/01 12:20:31;;;;;;;23.67;18.58;;;;;;;;;;4923079;28;20165;-84
2021/07/01 12:22:58;;;;;;;29.00;20.08;;;;;;;;;;4967420;28;20243;-84
2021/07/01 12:25:27;;;;;;;27.77;18.38;;;;;;;;;;4954492;28;20059;-86
2021/07/01 12:30:47;;;;;;;28.00;17.27;;;;;;;;;;4947337;28;20075;-83
2021/07/01 12:33:32;;;;;;;27.20;17.15;;;;;;;;;;4948187;28;20058;-83
2021/07/01 12:36:09;;;;;;;26.15;17.17;;;;;;;;;;4944493;28;20053;-84
2021/07/01 12:38:36;;;;;;;31.48;17.83;;;;;;;;;;4957131;28;20066;-84
2021/07/01 12:41:04;;;;;;;27.67;18.05;;;;;;;;;;4938967;28;20054;-84
2021/07/01 12:43:43;;;;;;;27.52;18.33;;;;;;;;;;4956555;28;20242;-84
2021/07/01 12:46:09;;;;;;;28.70;18.38;;;;;;;;;;4944035;28;20454;-87
2021/07/01 12:48:38;;;;;;;26.52;17.00;;;;;;;;;;4963235;28;20066;-84
2021/07/01 12:51:24;;;;;;;29.42;17.88;;;;;;;;;;4959002;28;23405;-82
2021/07/01 12:53:51;;;;;;;25.02;16.75;;;;;;;;;;4942265;28;20097;-83
2021/07/01 12:56:30;;;;;;;27.08;16.92;;;;;;;;;;4963057;28;20043;-84
2021/07/01 12:58:56;;;;;;;27.10;17.80;;;;;;;;;;4959307;28;20447;-83
2021/07/01 13:01:22;;;;;;;24.55;16.38;;;;;;;;;;4952901;28;20166;-88
2021/07/01 13:03:49;;;;;;;25.08;17.60;;;;;;;;;;4959555;28;20047;-84
2021/07/01 13:06:16;;;;;;;26.45;17.13;;;;;;;;;;4963607;28;20058;-83
2021/07/01 13:08:42;;;;;;;25.83;17.42;;;;;;;;;;4951704;28;20070;-85
2021/07/01 13:11:09;;;;;;;29.67;18.23;;;;;;;;;;4938915;28;20055;-82
2021/07/01 13:13:35;;;;;;;27.20;17.80;;;;;;;;;;4949705;28;20067;-82
2021/07/01 13:16:07;;;;;;;25.00;16.40;;;;;;;;;;4940205;28;20521;-81
2021/07/01 13:18:34;;;;;;;26.30;17.70;;;;;;;;;;4956292;28;20051;-82
2021/07/01 13:21:13;;;;;;;29.60;18.77;;;;;;;;;;4965700;28;20106;-84
2021/07/01 13:23:39;;;;;;;27.80;18.60;;;;;;;;;;4954177;28;20478;-84
2021/07/01 13:26:12;;;;;;;29.08;17.65;;;;;;;;;;4955690;28;20484;-82
2021/07/01 13:28:38;;;;;;;30.38;19.58;;;;;;;;;;4957301;28;20063;-83
2021/07/01 13:31:05;;;;;;;29.90;19.02;;;;;;;;;;4942108;28;29597;-82
2021/07/01 13:33:31;;;;;;;27.35;17.35;;;;;;;;;;4952960;28;20054;-85
2021/07/01 13:35:59;;;;;;;29.65;18.40;;;;;;;;;;4962972;28;20125;-83
2021/07/01 13:38:26;;;;;;;24.38;16.08;;;;;;;;;;4952761;28;20063;-89
2021/07/01 13:40:53;;;;;;;26.20;17.95;;;;;;;;;;4942550;28;20055;-84
2021/07/01 13:43:21;;;;;;;30.83;18.33;;;;;;;;;;4961497;28;20521;-84
2021/07/01 13:45:49;;;;;;;28.88;17.67;;;;;;;;;;4959565;28;20079;-84
2021/07/01 13:48:29;;;;;;;28.58;18.50;;;;;;;;;;4953555;28;20059;-84
2021/07/01 13:50:56;;;;;;;25.00;17.67;;;;;;;;;;4959804;28;20063;-83
2021/07/01 13:53:24;;;;;;;26.35;16.85;;;;;;;;;;4962489;28;20061;-88
2021/07/01 13:55:51;;;;;;;26.60;17.83;;;;;;;;;;4955663;28;20054;-82
2021/07/01 13:58:18;;;;;;;27.27;17.55;;;;;;;;;;4945576;28;20057;-84
2021/07/01 14:00:48;;;;;;;30.63;18.23;;;;;;;;;;4945254;28;20203;-82
2021/07/01 14:03:16;;;;;;;26.90;17.75;;;;;;;;;;4945704;28;20066;-86
2021/07/01 14:05:45;;;;;;;28.20;17.58;;;;;;;;;;4971435;28;20051;-81
2021/07/01 14:08:41;;;;;;;29.50;18.17;;;;;;;;;;4946800;28;20051;-84
2021/07/01 14:11:14;;;;;;;27.23;17.60;;;;;;;;;;4937086;28;20491;-83
2021/07/01 14:13:41;;;;;;;28.25;19.63;;;;;;;;;;4955675;28;20050;-82
2021/07/01 14:16:08;;;;;;;31.05;19.58;;;;;;;;;;4949672;28;20166;-83
2021/07/01 14:18:39;;;;;;;32.20;19.52;;;;;;;;;;4970507;28;20054;-82
2021/07/01 14:21:05;;;;;;;28.40;19.52;;;;;;;;;;4964356;28;20084;-83
2021/07/01 14:23:32;;;;;;;30.92;17.85;;;;;;;;;;4961001;28;21048;-82
2021/07/01 14:25:59;;;;;;;25.45;17.80;;;;;;;;;;4954782;28;20083;-82
2021/07/01 14:28:25;;;;;;;28.83;17.60;;;;;;;;;;4948364;28;20482;-87